METAR v bližini

 

LJLJ - Ljubljana/Brnik, Slovenia
Oddaljenost od postaje: Z 41km
Podatki zajeti: 22/02/2018 17:30
Rahel sneg, Oblačno
Rahel sneg, Oblačno
 Veter iz smeri VJV
Veter: VJV 15 km/h
Temperatura: 0°C
Občutek mraza zaradi vetra: -4°C
Rosišče: -3°C
Vlažnost: 80%
Tlak: 1013 hPa
Stanje: Rahel sneg
Oblačnost: Oblačno
Vidljivost: 10 km
Podrobnosti o oblakih: Pretežno oblačno 701 m
Oblačno 1372 m
2018/02/22 16:30 LJLJ 221630Z 12008KT 9999 -SN BKN023 OVC045 M00/M03 Q1013 NOSIG
LJMB - Maribor, Slovenia
Oddaljenost od postaje: SV 63km
Podatki zajeti: 22/02/2018 17:30
Meglica, Oblačno
Meglica, Oblačno
 Veter iz smeri S
Veter: S 13 km/h
Temperatura: -1°C
Občutek mraza zaradi vetra: -6°C
Rosišče: -2°C
Vlažnost: 93%
Tlak: 1015 hPa
Stanje: Meglica
Oblačnost: Oblačno
Vidljivost: 4 km
Podrobnosti o oblakih: Oblačno 396 m
2018/02/22 16:30 LJMB 221630Z 35007KT 4000 BR OVC013 M01/M02 Q1015 R32/690595
 
LJPZ - Portoroz, Slovenia
Oddaljenost od postaje: JZ 130km
Podatki zajeti: 22/02/2018 17:30
Pretežno oblačno
Pretežno oblačno
 Veter iz smeri VSV
Veter: VSV 28 km/h
Temperatura: 5°C
Občutek mraza zaradi vetra: 1°C
Rosišče: -4°C
Vlažnost: 53%
Tlak: 1008 hPa
Oblačnost: Pretežno oblačno
Vidljivost: 10 km
Podrobnosti o oblakih: Pretežno oblačno 1524 m
Pretežno oblačno 2743 m
2018/02/22 16:30 LJPZ 221630Z 07015KT 040V100 9999 BKN050 BKN090 05/M04 Q1008
LJCE - Cerklje, Slovenia
Oddaljenost od postaje: VJV 49km
Podatki zajeti: 22/02/2018 17:30
Oblačno
Oblačno
 Veter iz smeri VSV
Veter: VSV 6 km/h
Temperatura: 0°C
Rosišče: -3°C
Vlažnost: 80%
Tlak: 1015 hPa
Oblačnost: Oblačno
Vidljivost: 8 km
Podrobnosti o oblakih: Oblačno 610 m
2018/02/22 16:30 LJCE 221630Z 07003KT 360V100 8000 OVC020 M00/M03 Q1015 R09/29//95 RMK WHT
 
LDZA - Zagreb/Pleso, Croatia
Oddaljenost od postaje: VJV 96km
Podatki zajeti: 22/02/2018 17:30
Rahel sneg, Oblačno
Rahel sneg, Oblačno
 Veter iz smeri SV
Veter: SV 19 km/h
Temperatura: 0°C
Občutek mraza zaradi vetra: -5°C
Rosišče: -2°C
Vlažnost: 87%
Tlak: 1014 hPa
Stanje: Rahel sneg
Oblačnost: Oblačno
Vidljivost: 10 km
Podrobnosti o oblakih: Rahlo oblačno 610 m
Oblačno 853 m
2018/02/22 16:30 LDZA 221630Z 05010KT 9999 -SN FEW020 OVC028 00/M02 Q1014 R05/////// NOSIG
LDRI - Rijeka/Omisalj, Croatia
Oddaljenost od postaje: JJZ 109km
Podatki zajeti: 22/02/2018 17:30
Pretežno oblačno
Pretežno oblačno
 Veter iz smeri SV
Veter: SV 31 km/h, Sunek vetra: 52 km/h
Temperatura: 4°C
Občutek mraza zaradi vetra: -2°C
Rosišče: -3°C
Vlažnost: 61%
Tlak: 1009 hPa
Oblačnost: Pretežno oblačno
Vidljivost: 10 km
Podrobnosti o oblakih: Rahlo oblačno 1006 m
Pretežno oblačno 1524 m
2018/02/22 16:30 LDRI 221630Z 04017G28KT 360V070 9999 FEW033 BKN050 04/M03 Q1009
 
LDPL - Pula, Croatia
Oddaljenost od postaje: JJZ 164km
Podatki zajeti: 22/02/2018 17:30
Oblačno
Oblačno
 Veter iz smeri VSV
Veter: VSV 33 km/h
Temperatura: 5°C
Občutek mraza zaradi vetra: 0°C
Rosišče: -1°C
Vlažnost: 66%
Tlak: 1007 hPa
Oblačnost: Oblačno
Vidljivost: 10 km
Podrobnosti o oblakih: Oblačno 1067 m
2018/02/22 16:30 LDPL 221630Z 06018KT 9999 OVC035 05/M01 Q1007 NOSIG
LOWK - Klagenfurt(Civ/M, Austria
Oddaljenost od postaje: SZ 76km
Podatki zajeti: 22/02/2018 17:50
Rahel sneg, Pretežno oblačno
Rahel sneg, Pretežno oblačno
 Veter iz smeri SSV
Veter: SSV 6 km/h
Temperatura: -1°C
Rosišče: -3°C
Vlažnost: 86%
Tlak: 1013 hPa
Stanje: Rahel sneg
Oblačnost: Pretežno oblačno
Vidljivost: 7 km
Podrobnosti o oblakih: Rahlo oblačno 183 m
Pretežno oblačno 1006 m
2018/02/22 16:50 LOWK 221650Z 03003KT 360V060 7000 -SN FEW006 BKN033 M01/M03 Q1013 R10L/29//95 TEMPO 4000
 
LOWG - Graz (mil/Civ), Austria
Oddaljenost od postaje: SSV 100km
Podatki zajeti: 22/02/2018 17:50
Rahel sneg, Meglica, Pretežno oblačno
Rahel sneg, Meglica, Pretežno oblačno
 Veter iz smeri spremenljiv
Veter: spremenljiv 2 km/h
Temperatura: -2°C
Rosišče: -3°C
Vlažnost: 93%
Tlak: 1015 hPa
Stanje: Rahel sneg, Meglica
Oblačnost: Pretežno oblačno
Vidljivost: 3 km
Podrobnosti o oblakih: Rahlo oblačno 274 m
Delno oblačno 457 m
Pretežno oblačno 1067 m
2018/02/22 16:50 LOWG 221650Z VRB01KT 3400 -SN BR FEW009 SCT015 BKN035 M02/M03 Q1015 R17/590393 NOSIG
LOWZ - Zell Am See, Austria
Oddaljenost od postaje: SZ 211km
Podatki zajeti: 31/12/2016 17:00
Ni posodobljen
Jasno
Jasno
 Veter iz smeri spremenljiv
Veter: spremenljiv 4 km/h
Temperatura: -4°C
Rosišče: -7°C
Vlažnost: 80%
Tlak: 1031 hPa
Oblačnost: Jasno
2016/12/31 16:00 LOWZ 311600Z VRB02KT 50KM SKC M04/M07 Q1031
 
LOAN - Wr.neustadt East, Austria
Oddaljenost od postaje: SSV 212km
Podatki zajeti: 22/02/2018 17:00
Sneg, Meglica, Oblačno
Sneg, Meglica, Oblačno
 Veter iz smeri SSZ
Veter: SSZ 9 km/h
Stanje: Sneg, Meglica
Oblačnost: Oblačno
Vidljivost: 2 km
Podrobnosti o oblakih: Oblačno 152 m
2018/02/22 16:00 LOAN 221600Z 33005KT 1500 SN BR VV005
LIPQ - Ronchi Legionari, Italy
Oddaljenost od postaje: JZ 35km
Podatki zajeti: 22/02/2018 17:20
Pretežno oblačno
Pretežno oblačno
 Veter iz smeri V
Veter: V 20 km/h
Temperatura: 6°C
Občutek mraza zaradi vetra: 2°C
Rosišče: -3°C
Vlažnost: 53%
Tlak: 1009 hPa
Oblačnost: Pretežno oblačno
Vidljivost: 10 km
Podrobnosti o oblakih: Pretežno oblačno 1829 m
2018/02/22 16:20 LIPQ 221620Z 09011KT 060V120 9999 BKN060 06/M03 Q1009
 
LIVT - Trieste, Italy
Oddaljenost od postaje: ZJZ 109km
Podatki zajeti: 22/02/2018 16:55
Pretežno oblačno
Pretežno oblačno
 Veter iz smeri SSV
Veter: SSV 41 km/h, Sunek vetra: 81 km/h
Temperatura: 4°C
Občutek mraza zaradi vetra: -2°C
Rosišče: -4°C
Vlažnost: 56%
Tlak: 1008 hPa
Oblačnost: Pretežno oblačno
Vidljivost: 10 km
Podrobnosti o oblakih: Pretežno oblačno 1219 m
2018/02/22 15:55 LIVT 221555Z 03022G44KT 9999 BKN040 04/M04 Q1008 RMK BKN QUK 4 QUL 3 NE VIS MAR 18 KM VIS MIN 9999
LIVO - Tarvisio, Italy
Oddaljenost od postaje: SSZ 49km
Podatki zajeti: 22/02/2018 16:55
Oblačno
Oblačno
 Veter iz smeri Z
Veter: Z 9 km/h
Temperatura: -2°C
Občutek mraza zaradi vetra: -6°C
Rosišče: -4°C
Vlažnost: 86%
Tlak: 1010 hPa
Oblačnost: Oblačno
Vidljivost: 6 km
Podrobnosti o oblakih: Oblačno 366 m
2018/02/22 15:55 LIVO 221555Z 27005KT 6000 OVC012 M02/M04 Q1010 RMK OVC VIS MIN 6000
 
LIPZ - Venezia/Tessera, Italy
Oddaljenost od postaje: ZJZ 217km
Podatki zajeti: 22/02/2018 17:20
Rahlo dežuje, Pretežno oblačno
Rahlo dežuje, Pretežno oblačno
 Veter iz smeri SV
Veter: SV 31 km/h
Temperatura: 4°C
Občutek mraza zaradi vetra: -2°C
Rosišče: 1°C
Vlažnost: 81%
Tlak: 1009 hPa
Stanje: Rahlo dežuje
Oblačnost: Pretežno oblačno
Vidljivost: 10 km
Podrobnosti o oblakih: Rahlo oblačno 152 m
Pretežno oblačno 1311 m
2018/02/22 16:20 LIPZ 221620Z 04017KT 9999 -RA FEW005 BKN043 04/01 Q1009 NOSIG
LHSM - Balaton, Hungary
Oddaljenost od postaje: VSV 177km
Podatki zajeti: 22/02/2018 16:45
Rahel sneg, Oblačno
Rahel sneg, Oblačno
 Veter iz smeri S
Veter: S 15 km/h
Temperatura: -1°C
Občutek mraza zaradi vetra: -6°C
Rosišče: -1°C
Vlažnost: 100%
Tlak: 1016 hPa
Stanje: Rahel sneg
Oblačnost: Oblačno
Vidljivost: 2 km
Podrobnosti o oblakih: Oblačno 305 m
2018/02/22 15:45 LHSM 221545Z 36008KT 1500 -SN OVC010 M01/M01 Q1016